createdAt,value
2023-05-07T00:01:50.467Z,2.47
2023-05-07T00:04:18.658Z,2.40
2023-05-07T00:06:47.275Z,2.53
2023-05-07T00:09:15.455Z,2.53
2023-05-07T00:11:43.616Z,2.37
2023-05-07T00:14:11.770Z,2.30
2023-05-07T00:16:39.983Z,2.47
2023-05-07T00:19:09.570Z,3.07
2023-05-07T00:21:37.733Z,2.70
2023-05-07T00:24:06.396Z,2.53
2023-05-07T00:26:34.579Z,2.90
2023-05-07T00:29:02.735Z,2.90
2023-05-07T00:31:30.985Z,2.30
2023-05-07T00:33:59.115Z,2.50
2023-05-07T00:36:28.616Z,2.53
2023-05-07T00:38:57.270Z,2.43
2023-05-07T00:41:25.929Z,2.53
2023-05-07T00:43:54.108Z,2.80
2023-05-07T00:46:23.548Z,2.40
2023-05-07T00:48:52.973Z,2.60
2023-05-07T00:51:21.764Z,3.00
2023-05-07T00:53:51.704Z,2.80
2023-05-07T00:56:20.069Z,2.43
2023-05-07T00:58:48.198Z,2.57
2023-05-07T01:01:17.731Z,2.43
2023-05-07T01:03:46.199Z,2.40
2023-05-07T01:06:17.760Z,2.30
2023-05-07T01:08:47.424Z,2.40
2023-05-07T01:11:17.622Z,2.87
2023-05-07T01:13:46.490Z,2.40
2023-05-07T01:16:14.717Z,2.63
2023-05-07T01:18:45.665Z,2.60
2023-05-07T01:21:15.605Z,2.67
2023-05-07T01:23:46.176Z,2.60
2023-05-07T01:26:14.379Z,2.53
2023-05-07T01:28:45.920Z,2.67
2023-05-07T01:31:15.919Z,2.40
2023-05-07T01:33:45.863Z,2.40
2023-05-07T01:36:15.403Z,2.53
2023-05-07T01:38:45.398Z,2.70
2023-05-07T01:41:14.463Z,2.33
2023-05-07T01:43:44.642Z,2.83
2023-05-07T01:46:14.066Z,2.87
2023-05-07T01:48:42.730Z,2.43
2023-05-07T01:51:11.202Z,2.67
2023-05-07T01:53:40.366Z,2.83
2023-05-07T01:56:10.072Z,2.10
2023-05-07T01:58:40.831Z,2.50
2023-05-07T02:01:10.146Z,2.27
2023-05-07T02:03:38.839Z,2.57
2023-05-07T02:06:13.887Z,2.60
2023-05-07T02:08:42.234Z,2.53
2023-05-07T02:11:12.974Z,2.33
2023-05-07T02:13:41.232Z,2.17
2023-05-07T02:16:09.642Z,2.50
2023-05-07T02:18:37.805Z,2.70
2023-05-07T02:21:06.130Z,2.43
2023-05-07T02:23:34.540Z,2.40
2023-05-07T02:26:03.648Z,2.20
2023-05-07T02:28:33.263Z,2.30
2023-05-07T02:31:05.003Z,2.67
2023-05-07T02:33:35.652Z,2.73
2023-05-07T02:36:09.104Z,2.50
2023-05-07T02:38:39.641Z,2.30
2023-05-07T02:41:07.949Z,2.37
2023-05-07T02:43:37.517Z,2.03
2023-05-07T02:46:06.584Z,2.73
2023-05-07T02:48:37.510Z,2.40
2023-05-07T02:51:06.641Z,2.10
2023-05-07T02:53:36.503Z,2.50
2023-05-07T02:56:05.010Z,2.27
2023-05-07T02:58:33.144Z,2.47
2023-05-07T03:01:04.548Z,2.00
2023-05-07T03:03:37.494Z,2.27
2023-05-07T03:06:06.186Z,2.30
2023-05-07T03:08:37.652Z,2.23
2023-05-07T03:11:06.021Z,2.10
2023-05-07T03:13:34.179Z,2.13
2023-05-07T03:16:03.948Z,2.30
2023-05-07T03:18:32.152Z,2.17
2023-05-07T03:21:00.492Z,2.27
2023-05-07T03:23:28.736Z,1.87
2023-05-07T03:25:56.943Z,2.83
2023-05-07T03:28:25.149Z,1.77
2023-05-07T03:30:58.711Z,2.07
2023-05-07T03:33:28.880Z,2.37
2023-05-07T03:35:58.132Z,1.90
2023-05-07T03:38:27.625Z,1.87
2023-05-07T03:40:56.506Z,2.10
2023-05-07T03:43:24.687Z,2.07
2023-05-07T03:46:00.918Z,2.30
2023-05-07T03:48:31.926Z,2.20
2023-05-07T03:51:01.449Z,2.37
2023-05-07T03:53:34.756Z,2.17
2023-05-07T03:56:03.155Z,2.00
2023-05-07T03:58:35.844Z,1.70
2023-05-07T04:01:08.780Z,2.10
2023-05-07T04:03:38.611Z,2.80
2023-05-07T04:06:07.160Z,2.17
2023-05-07T04:08:37.022Z,1.97
2023-05-07T04:11:06.715Z,2.00
2023-05-07T04:13:36.869Z,1.97
2023-05-07T04:16:08.568Z,2.10
2023-05-07T04:18:39.789Z,1.77
2023-05-07T04:21:08.237Z,1.97
2023-05-07T04:23:39.480Z,2.30
2023-05-07T04:26:12.119Z,1.80
2023-05-07T04:28:43.692Z,2.00
2023-05-07T04:31:12.271Z,1.97
2023-05-07T04:33:42.512Z,2.10
2023-05-07T04:36:14.037Z,2.10
2023-05-07T04:38:49.747Z,1.67
2023-05-07T04:41:18.889Z,2.20
2023-05-07T04:43:47.123Z,1.87
2023-05-07T04:46:17.144Z,2.17
2023-05-07T04:48:47.535Z,1.67
2023-05-07T04:51:15.713Z,2.03
2023-05-07T04:53:44.274Z,1.93
2023-05-07T04:56:12.854Z,1.90
2023-05-07T04:58:44.101Z,1.97
2023-05-07T05:01:12.983Z,1.70
2023-05-07T05:03:42.338Z,2.10
2023-05-07T05:06:12.294Z,1.83
2023-05-07T05:08:40.895Z,1.73
2023-05-07T05:11:09.107Z,1.73
2023-05-07T05:13:38.149Z,1.90
2023-05-07T05:16:17.504Z,1.87
2023-05-07T05:18:46.143Z,1.93
2023-05-07T05:21:18.096Z,1.50
2023-05-07T05:23:48.664Z,1.80
2023-05-07T05:26:22.263Z,1.70
2023-05-07T05:28:50.875Z,1.73
2023-05-07T05:31:22.415Z,1.87
2023-05-07T05:33:51.973Z,1.93
2023-05-07T05:36:21.587Z,2.30
2023-05-07T05:38:51.434Z,1.53
2023-05-07T05:41:20.060Z,1.80
2023-05-07T05:43:48.258Z,1.70
2023-05-07T05:46:17.556Z,2.00
2023-05-07T05:48:45.932Z,2.00
2023-05-07T05:51:14.157Z,2.13
2023-05-07T05:53:43.716Z,1.63
2023-05-07T05:56:12.254Z,1.63
2023-05-07T05:58:43.096Z,1.43
2023-05-07T06:01:12.506Z,1.77
2023-05-07T06:03:40.703Z,1.87
2023-05-07T06:06:15.576Z,1.50
2023-05-07T06:08:46.914Z,1.90
2023-05-07T06:11:19.591Z,1.60
2023-05-07T06:13:49.066Z,1.90
2023-05-07T06:16:17.458Z,1.93
2023-05-07T06:18:47.625Z,1.90
2023-05-07T06:21:17.119Z,1.60
2023-05-07T06:23:47.583Z,1.80
2023-05-07T06:26:16.043Z,1.73
2023-05-07T06:28:48.597Z,1.50
2023-05-07T06:31:21.441Z,1.80
2023-05-07T06:33:56.404Z,1.70
2023-05-07T06:36:27.494Z,1.90
2023-05-07T06:39:00.183Z,1.87
2023-05-07T06:41:28.373Z,1.80
2023-05-07T06:43:59.527Z,2.00
2023-05-07T06:46:39.679Z,1.50
2023-05-07T06:49:08.816Z,1.90
2023-05-07T06:51:37.027Z,1.50
2023-05-07T06:54:07.191Z,1.77
2023-05-07T06:56:37.975Z,2.30
2023-05-07T06:59:08.349Z,1.80
2023-05-07T07:01:40.629Z,1.50
2023-05-07T07:04:10.180Z,2.00
2023-05-07T07:06:39.460Z,1.80
2023-05-07T07:09:13.009Z,2.20
2023-05-07T07:11:42.268Z,2.07
2023-05-07T07:14:10.968Z,1.70
2023-05-07T07:16:47.796Z,1.53
2023-05-07T07:19:17.245Z,1.90
2023-05-07T07:21:46.659Z,2.17
2023-05-07T07:24:20.202Z,1.87
2023-05-07T07:26:49.856Z,2.20
2023-05-07T07:29:19.751Z,2.00
2023-05-07T07:31:49.938Z,1.83
2023-05-07T07:34:19.813Z,1.63
2023-05-07T07:36:48.092Z,1.90
2023-05-07T07:39:21.093Z,1.60
2023-05-07T07:41:52.147Z,1.70
2023-05-07T07:44:21.890Z,2.03
2023-05-07T07:46:54.895Z,1.70
2023-05-07T07:49:25.344Z,1.63
2023-05-07T07:51:53.552Z,2.20
2023-05-07T07:54:23.124Z,1.90
2023-05-07T07:56:51.852Z,1.83
2023-05-07T07:59:21.210Z,1.80
2023-05-07T08:01:55.516Z,2.00
2023-05-07T08:04:24.959Z,3.03
2023-05-07T08:06:55.321Z,2.90
2023-05-07T08:09:24.915Z,3.20
2023-05-07T08:11:54.911Z,2.50
2023-05-07T08:14:23.235Z,1.97
2023-05-07T08:16:51.537Z,2.23
2023-05-07T08:19:19.730Z,2.10
2023-05-07T08:21:48.820Z,2.70
2023-05-07T08:24:17.780Z,2.60
2023-05-07T08:26:48.718Z,2.47
2023-05-07T08:29:16.849Z,2.40
2023-05-07T08:31:45.382Z,3.30
2023-05-07T08:34:13.755Z,2.90
2023-05-07T08:40:44.682Z,2.60
2023-05-07T08:43:21.650Z,2.13
2023-05-07T08:45:54.273Z,2.33
2023-05-07T08:48:27.137Z,2.30
2023-05-07T08:51:02.776Z,2.20
2023-05-07T08:53:31.070Z,3.23
2023-05-07T08:55:59.660Z,2.50
2023-05-07T08:58:29.550Z,2.70
2023-05-07T09:00:58.467Z,2.60
2023-05-07T09:03:26.908Z,2.20
2023-05-07T09:05:57.349Z,2.57
2023-05-07T09:08:28.810Z,2.60
2023-05-07T09:11:00.158Z,2.30
2023-05-07T09:13:30.617Z,2.70
2023-05-07T09:15:59.902Z,2.40
2023-05-07T09:18:28.593Z,3.17
2023-05-07T09:20:57.574Z,2.50
2023-05-07T09:23:26.751Z,3.00
2023-05-07T09:26:02.596Z,2.30
2023-05-07T09:28:35.588Z,2.67
2023-05-07T09:31:04.243Z,2.40
2023-05-07T09:33:33.103Z,2.90
2023-05-07T09:36:08.383Z,2.57
2023-05-07T09:38:39.170Z,4.50
2023-05-07T09:41:09.993Z,2.03
2023-05-07T09:43:47.711Z,2.97
2023-05-07T09:46:19.027Z,2.50
2023-05-07T09:48:55.519Z,1.90
2023-05-07T09:51:31.087Z,2.30
2023-05-07T09:54:04.568Z,2.70
2023-05-07T09:56:38.741Z,2.50
2023-05-07T09:59:10.504Z,2.20
2023-05-07T10:01:40.170Z,2.40
2023-05-07T10:04:09.671Z,2.50
2023-05-07T10:06:39.799Z,2.73
2023-05-07T10:09:09.265Z,3.33
2023-05-07T10:11:39.649Z,2.33
2023-05-07T10:14:10.125Z,3.00
2023-05-07T10:16:39.538Z,2.53
2023-05-07T10:19:14.048Z,2.23
2023-05-07T10:21:50.798Z,2.70
2023-05-07T10:24:25.078Z,2.40
2023-05-07T10:26:56.090Z,2.63
2023-05-07T10:29:39.555Z,2.63
2023-05-07T10:32:31.773Z,2.40
2023-05-07T10:35:04.827Z,2.63
2023-05-07T10:37:34.323Z,2.20
2023-05-07T10:40:04.000Z,2.20
2023-05-07T10:42:34.159Z,2.43
2023-05-07T10:45:16.845Z,2.40
2023-05-07T10:50:51.942Z,2.70
2023-05-07T10:53:27.746Z,2.80
2023-05-07T10:56:30.037Z,2.80
2023-05-07T10:59:43.076Z,2.43
2023-05-07T11:03:08.310Z,2.70
2023-05-07T11:06:12.919Z,2.27
2023-05-07T11:08:57.612Z,2.10
2023-05-07T11:11:48.840Z,2.20
2023-05-07T11:14:46.728Z,2.50
2023-05-07T11:17:20.264Z,2.00
2023-05-07T11:19:58.539Z,2.70
2023-05-07T11:22:41.848Z,2.57
2023-05-07T11:25:31.042Z,2.43
2023-05-07T11:28:13.107Z,2.40
2023-05-07T11:30:50.347Z,2.27
2023-05-07T11:33:21.460Z,2.40
2023-05-07T11:35:55.236Z,2.33
2023-05-07T11:38:26.784Z,2.47
2023-05-07T11:40:56.160Z,2.23
2023-05-07T11:43:24.532Z,2.00
2023-05-07T11:45:52.953Z,2.47
2023-05-07T11:48:23.287Z,2.27
2023-05-07T11:51:02.155Z,2.50
2023-05-07T11:53:38.291Z,2.30
2023-05-07T11:56:10.793Z,2.30
2023-05-07T11:58:39.805Z,2.93
2023-05-07T12:01:11.742Z,2.43
2023-05-07T12:03:44.129Z,2.20
2023-05-07T12:06:15.435Z,2.43
2023-05-07T12:08:47.866Z,2.50
2023-05-07T12:11:23.804Z,2.50
2023-05-07T12:13:52.234Z,2.13
2023-05-07T12:16:21.951Z,1.77
2023-05-07T12:18:51.036Z,1.90
2023-05-07T12:21:21.277Z,2.70
2023-05-07T12:23:50.125Z,2.00
2023-05-07T12:26:18.431Z,2.33
2023-05-07T12:28:48.053Z,2.40
2023-05-07T12:31:17.839Z,2.33
2023-05-07T12:33:46.075Z,2.10
2023-05-07T12:36:15.407Z,1.87
2023-05-07T12:38:44.949Z,2.00
2023-05-07T12:41:14.390Z,2.30
2023-05-07T12:43:47.169Z,2.57
2023-05-07T12:46:18.239Z,1.90
2023-05-07T12:48:47.969Z,2.40
2023-05-07T12:51:17.652Z,2.40
2023-05-07T12:53:48.376Z,1.70
2023-05-07T12:56:18.663Z,2.43
2023-05-07T12:58:47.115Z,1.90
2023-05-07T13:01:16.692Z,2.27
2023-05-07T13:03:52.033Z,2.20
2023-05-07T13:06:20.862Z,2.23
2023-05-07T13:08:50.420Z,2.00
2023-05-07T13:11:19.286Z,2.80
2023-05-07T13:13:48.099Z,1.97
2023-05-07T13:16:16.697Z,2.20
2023-05-07T13:18:46.962Z,2.40
2023-05-07T13:21:15.246Z,2.10
2023-05-07T13:23:43.447Z,2.50
2023-05-07T13:26:25.505Z,2.20
2023-05-07T13:28:55.484Z,2.97
2023-05-07T13:31:23.792Z,2.00
2023-05-07T13:33:52.141Z,2.07
2023-05-07T13:36:20.444Z,2.70
2023-05-07T13:38:48.671Z,2.10
2023-05-07T13:41:18.227Z,2.70
2023-05-07T13:43:46.492Z,2.37
2023-05-07T13:46:14.705Z,2.30
2023-05-07T13:48:43.097Z,2.10
2023-05-07T13:51:11.390Z,1.87
2023-05-07T13:53:39.564Z,2.17
2023-05-07T13:56:08.014Z,2.70
2023-05-07T13:58:42.172Z,2.30
2023-05-07T14:01:13.493Z,2.10
2023-05-07T14:03:42.425Z,2.20
2023-05-07T14:06:10.723Z,2.27
2023-05-07T14:08:38.912Z,2.53
2023-05-07T14:11:07.080Z,1.53
2023-05-07T14:13:35.471Z,2.10
2023-05-07T14:16:07.144Z,1.93
2023-05-07T14:18:38.020Z,2.27
2023-05-07T14:21:08.593Z,1.90
2023-05-07T14:23:37.072Z,1.93
2023-05-07T14:26:05.357Z,1.93
2023-05-07T14:28:33.575Z,1.93
2023-05-07T14:31:02.034Z,1.50
2023-05-07T14:33:31.669Z,2.27
2023-05-07T14:35:59.974Z,2.17
2023-05-07T14:38:28.340Z,2.03
2023-05-07T14:40:57.242Z,1.80
2023-05-07T14:43:25.587Z,2.17
2023-05-07T14:45:54.641Z,1.63
2023-05-07T14:48:22.795Z,1.63
2023-05-07T14:50:52.329Z,1.93
2023-05-07T14:53:20.499Z,1.57
2023-05-07T14:55:49.921Z,2.30
2023-05-07T14:58:18.233Z,1.77
2023-05-07T15:00:46.399Z,2.00
2023-05-07T15:03:14.771Z,1.67
2023-05-07T15:05:44.976Z,1.80
2023-05-07T15:08:14.566Z,1.83
2023-05-07T15:10:42.732Z,1.73
2023-05-07T15:13:15.302Z,2.50
2023-05-07T15:15:45.120Z,1.50
2023-05-07T15:18:13.433Z,1.67
2023-05-07T15:20:41.914Z,2.00
2023-05-07T15:23:13.236Z,2.03
2023-05-07T15:25:43.876Z,1.70
2023-05-07T15:28:12.035Z,1.83
2023-05-07T15:30:40.255Z,2.00
2023-05-07T15:33:08.443Z,1.80
2023-05-07T15:35:36.584Z,2.00
2023-05-07T15:38:04.780Z,1.80
2023-05-07T15:40:33.858Z,1.70
2023-05-07T15:43:03.595Z,1.63
2023-05-07T15:45:31.911Z,1.70
2023-05-07T15:48:00.325Z,2.10
2023-05-07T15:50:29.588Z,2.33
2023-05-07T15:52:58.278Z,2.03
2023-05-07T15:55:26.478Z,2.40
2023-05-07T15:57:55.131Z,2.77
2023-05-07T16:00:25.183Z,2.40
2023-05-07T16:02:53.564Z,2.50
2023-05-07T16:05:21.832Z,2.70
2023-05-07T16:07:50.132Z,2.33
2023-05-07T16:10:18.595Z,2.73
2023-05-07T16:12:47.025Z,2.40
2023-05-07T16:15:15.304Z,2.50
2023-05-07T16:17:47.672Z,3.10
2023-05-07T16:20:19.898Z,2.30
2023-05-07T16:22:48.587Z,2.20
2023-05-07T16:25:16.812Z,2.20
2023-05-07T16:27:45.013Z,2.00
2023-05-07T16:30:13.573Z,2.30
2023-05-07T16:32:42.033Z,2.40
2023-05-07T16:35:12.571Z,2.30
2023-05-07T16:37:42.516Z,2.30
2023-05-07T16:40:12.630Z,2.80
2023-05-07T16:42:41.129Z,2.53
2023-05-07T16:45:11.055Z,3.07
2023-05-07T16:47:39.581Z,2.20
2023-05-07T16:50:08.739Z,2.40
2023-05-07T16:52:38.299Z,1.97
2023-05-07T16:55:07.309Z,2.30
2023-05-07T16:57:35.507Z,2.80
2023-05-07T17:00:07.212Z,2.40
2023-05-07T17:02:36.115Z,2.47
2023-05-07T17:05:06.193Z,2.27
2023-05-07T17:07:34.451Z,2.37
2023-05-07T17:10:04.980Z,2.37
2023-05-07T17:12:34.518Z,2.57
2023-05-07T17:15:02.676Z,2.13
2023-05-07T17:17:30.984Z,2.30
2023-05-07T17:20:00.143Z,2.73
2023-05-07T17:22:28.480Z,2.70
2023-05-07T17:24:56.996Z,2.90
2023-05-07T17:27:26.757Z,2.30
2023-05-07T17:29:55.643Z,7.40
2023-05-07T17:32:23.988Z,6.50
2023-05-07T17:34:52.177Z,6.87
2023-05-07T17:37:22.344Z,6.57
2023-05-07T17:39:52.668Z,6.13
2023-05-07T17:42:20.838Z,5.10
2023-05-07T17:44:50.489Z,5.17
2023-05-07T17:47:19.140Z,5.20
2023-05-07T17:49:47.957Z,5.30
2023-05-07T17:52:16.727Z,4.67
2023-05-07T17:54:45.463Z,5.00
2023-05-07T17:57:13.698Z,5.50
2023-05-07T17:59:42.996Z,5.20
2023-05-07T18:02:13.423Z,5.00
2023-05-07T18:04:42.080Z,5.17
2023-05-07T18:07:10.807Z,4.60
2023-05-07T18:09:39.462Z,4.50
2023-05-07T18:12:08.301Z,6.67
2023-05-07T18:14:38.283Z,6.50
2023-05-07T18:17:07.911Z,5.07
2023-05-07T18:19:50.241Z,9.47
2023-05-07T18:22:20.431Z,9.07
2023-05-07T18:24:49.584Z,9.43
2023-05-07T18:27:17.772Z,6.70
2023-05-07T18:29:45.963Z,5.43
2023-05-07T18:32:14.597Z,7.67
2023-05-07T18:34:42.777Z,6.40
2023-05-07T18:37:12.315Z,6.43
2023-05-07T18:39:40.562Z,6.97
2023-05-07T18:42:08.794Z,5.83
2023-05-07T18:44:38.449Z,5.23
2023-05-07T18:47:07.684Z,8.50
2023-05-07T18:49:36.491Z,8.30
2023-05-07T18:52:05.099Z,7.33
2023-05-07T18:54:34.705Z,6.27
2023-05-07T18:57:03.508Z,8.73
2023-05-07T18:59:31.880Z,5.63
2023-05-07T19:02:00.034Z,6.30
2023-05-07T19:04:28.259Z,5.63
2023-05-07T19:06:57.160Z,6.13
2023-05-07T19:09:25.435Z,5.53
2023-05-07T19:11:56.238Z,6.23
2023-05-07T19:14:24.474Z,5.27
2023-05-07T19:16:52.661Z,5.60
2023-05-07T19:19:20.858Z,5.67
2023-05-07T19:21:49.120Z,5.43
2023-05-07T19:24:18.189Z,5.30
2023-05-07T19:26:46.413Z,5.13
2023-05-07T19:29:18.404Z,5.90
2023-05-07T19:31:47.014Z,6.00
2023-05-07T19:34:15.357Z,4.73
2023-05-07T19:36:44.530Z,5.40
2023-05-07T19:39:12.857Z,5.43
2023-05-07T19:41:41.922Z,5.10
2023-05-07T19:44:10.248Z,3.93
2023-05-07T19:46:44.669Z,5.43
2023-05-07T19:49:13.328Z,4.57
2023-05-07T19:51:41.580Z,4.47
2023-05-07T19:54:09.851Z,4.00
2023-05-07T19:56:39.920Z,4.67
2023-05-07T19:59:08.240Z,3.87
2023-05-07T20:01:36.437Z,4.03
2023-05-07T20:04:06.574Z,4.13
2023-05-07T20:06:34.916Z,4.97
2023-05-07T20:09:03.060Z,3.97
2023-05-07T20:11:31.865Z,5.73
2023-05-07T20:14:00.146Z,3.97
2023-05-07T20:16:28.335Z,4.80
2023-05-07T20:18:56.695Z,4.00
2023-05-07T20:21:26.676Z,4.73
2023-05-07T20:23:54.811Z,4.17
2023-05-07T20:26:22.985Z,3.53
2023-05-07T20:28:51.125Z,4.10
2023-05-07T20:31:20.589Z,4.00
2023-05-07T20:33:48.844Z,3.40
2023-05-07T20:36:17.128Z,4.10
2023-05-07T20:38:46.824Z,3.40
2023-05-07T20:41:14.958Z,3.50
2023-05-07T20:43:43.529Z,3.10
2023-05-07T20:46:11.845Z,3.60
2023-05-07T20:48:40.011Z,4.00
2023-05-07T20:51:10.441Z,4.63
2023-05-07T20:53:40.589Z,3.50
2023-05-07T20:56:10.191Z,3.63
2023-05-07T20:58:38.356Z,3.67
2023-05-07T21:01:07.080Z,3.43
2023-05-07T21:03:35.251Z,3.20
2023-05-07T21:06:04.257Z,3.57
2023-05-07T21:08:32.874Z,3.87
2023-05-07T21:11:01.053Z,3.47
2023-05-07T21:13:30.598Z,3.20
2023-05-07T21:15:58.769Z,3.00
2023-05-07T21:18:29.016Z,3.27
2023-05-07T21:20:57.206Z,2.93
2023-05-07T21:23:25.439Z,3.50
2023-05-07T21:25:53.650Z,3.50
2023-05-07T21:28:21.780Z,3.07
2023-05-07T21:30:53.040Z,2.53
2023-05-07T21:33:21.359Z,3.70
2023-05-07T21:35:49.535Z,2.80
2023-05-07T21:38:18.756Z,3.00
2023-05-07T21:40:46.862Z,4.07
2023-05-07T21:43:14.983Z,3.47
2023-05-07T21:45:43.119Z,4.10
2023-05-07T21:48:14.495Z,2.80
2023-05-07T21:50:42.643Z,2.93
2023-05-07T21:53:10.866Z,2.60
2023-05-07T21:55:39.045Z,2.63
2023-05-07T21:58:07.343Z,3.33
2023-05-07T22:00:35.473Z,3.13
2023-05-07T22:03:03.758Z,2.97
2023-05-07T22:05:33.413Z,2.50
2023-05-07T22:08:01.511Z,2.97
2023-05-07T22:10:29.659Z,2.20
2023-05-07T22:12:57.843Z,2.80
2023-05-07T22:15:26.062Z,2.67
2023-05-07T22:17:54.199Z,3.03
2023-05-07T22:20:22.675Z,2.50
2023-05-07T22:22:53.843Z,2.60
2023-05-07T22:25:23.111Z,2.67
2023-05-07T22:27:52.749Z,2.83
2023-05-07T22:30:20.923Z,2.60
2023-05-07T22:32:51.105Z,2.90
2023-05-07T22:35:19.563Z,2.70
2023-05-07T22:37:47.673Z,2.70
2023-05-07T22:40:17.396Z,2.20
2023-05-07T22:42:45.536Z,2.20
2023-05-07T22:45:13.762Z,2.00
2023-05-07T22:47:41.975Z,1.80
2023-05-07T22:50:10.700Z,2.07
2023-05-07T22:52:39.044Z,2.57
2023-05-07T22:55:08.310Z,1.87
2023-05-07T22:57:37.809Z,2.10
2023-05-07T23:00:07.107Z,2.97
2023-05-07T23:02:35.287Z,2.17
2023-05-07T23:05:03.718Z,2.17
2023-05-07T23:07:31.941Z,2.20
2023-05-07T23:10:00.136Z,1.83
2023-05-07T23:12:28.324Z,2.13
2023-05-07T23:14:58.010Z,1.90
2023-05-07T23:17:26.166Z,1.87
2023-05-07T23:19:54.395Z,1.67
2023-05-07T23:22:22.608Z,1.80
2023-05-07T23:24:50.976Z,2.23
2023-05-07T23:27:19.089Z,2.10
2023-05-07T23:29:47.670Z,2.53
2023-05-07T23:32:17.213Z,1.80
2023-05-07T23:34:45.387Z,1.70
2023-05-07T23:37:13.563Z,1.50
2023-05-07T23:39:41.725Z,2.10
2023-05-07T23:42:10.194Z,1.63
2023-05-07T23:44:38.428Z,1.50
2023-05-07T23:47:06.639Z,1.83
2023-05-07T23:49:36.124Z,1.63
2023-05-07T23:52:04.384Z,1.80
2023-05-07T23:54:32.493Z,2.00
2023-05-07T23:57:01.026Z,1.70
2023-05-07T23:59:29.690Z,1.80
